Time;durP1;ratioP1;P1;durP2;ratioP2;P2;SDS_P1;SDS_P2;PMS_P1;PMS_P2;Temp;Humidity;BMP_temperature;BMP_pressure;BME280_temperature;BME280_humidity;BME280_pressure;Samples;Min_cycle;Max_cycle;Signal;HPM_P1;HPM_P2
2023/01/05 00:01:02;;;;;;;17.75;15.95;;;;;;;6.67;76.55;95744.16;5095970;28;20200;-71
2023/01/05 00:03:28;;;;;;;19.08;17.08;;;;;;;6.69;76.86;95746.59;5095697;28;20635;-71
2023/01/05 00:05:59;;;;;;;19.08;17.05;;;;;;;6.69;76.93;95743.84;5096015;28;20203;-71
2023/01/05 00:08:26;;;;;;;18.38;16.42;;;;;;;6.71;76.61;95749.81;5094714;28;20632;-71
2023/01/05 00:24:34;;;;;;;18.95;17.15;;;;;;;6.61;76.71;95719.91;5095490;28;20176;-71
2023/01/05 00:27:01;;;;;;;19.00;17.02;;;;;;;6.64;76.71;95724.75;5094598;28;20200;-71
2023/01/05 00:29:29;;;;;;;16.83;15.23;;;;;;;6.66;76.37;95722.53;5095330;28;20635;-71
2023/01/05 00:31:55;;;;;;;17.35;15.63;;;;;;;6.66;76.98;95719.78;5095450;28;20204;-71
2023/01/05 00:34:22;;;;;;;15.70;14.27;;;;;;;6.69;76.77;95709.03;5094701;28;20184;-71
2023/01/05 00:36:49;;;;;;;20.00;17.88;;;;;;;6.68;76.64;95709.31;5096144;28;20316;-71
2023/01/05 00:39:15;;;;;;;19.42;17.50;;;;;;;6.67;76.63;95697.53;5095511;28;20180;-71
2023/01/05 00:41:42;;;;;;;19.15;17.27;;;;;;;6.66;76.41;95706.09;5094453;28;20224;-71
2023/01/05 00:44:10;;;;;;;18.25;16.45;;;;;;;6.68;76.15;95709.31;5094194;28;20640;-71
2023/01/05 00:46:38;;;;;;;17.00;15.30;;;;;;;6.72;76.52;95704.84;5094594;28;20211;-71
2023/01/05 00:49:05;;;;;;;16.33;14.73;;;;;;;6.75;76.39;95706.94;5095059;28;20234;-71
2023/01/05 00:51:32;;;;;;;15.70;14.07;;;;;;;6.79;76.04;95704.38;5095485;28;20204;-71
2023/01/05 00:53:58;;;;;;;16.02;14.45;;;;;;;6.79;76.62;95705.22;5094747;28;20539;-71
2023/01/05 00:56:25;;;;;;;16.67;14.98;;;;;;;6.80;76.23;95708.75;5101544;28;20253;-71
2023/01/05 00:58:53;;;;;;;17.00;15.27;;;;;;;6.84;76.80;95710.56;5101700;28;20541;-71
2023/01/05 01:01:20;;;;;;;18.02;16.20;;;;;;;6.80;76.18;95709.56;5102123;28;20215;-71
2023/01/05 01:03:48;;;;;;;18.08;16.27;;;;;;;6.72;76.34;95713.88;5101131;28;20518;-71
2023/01/05 01:06:15;;;;;;;18.67;16.77;;;;;;;6.66;76.64;95706.91;5101385;28;20260;-71
2023/01/05 01:08:43;;;;;;;18.90;16.90;;;;;;;6.61;76.47;95708.94;5101991;28;20185;-71
2023/01/05 01:11:10;;;;;;;19.95;18.05;;;;;;;6.60;76.81;95712.81;5100922;28;20272;-71
2023/01/05 01:13:37;;;;;;;21.60;19.27;;;;;;;6.55;76.42;95716.50;5100700;28;20192;-71
2023/01/05 01:16:07;;;;;;;22.17;19.90;;;;;;;6.55;77.16;95712.94;5101640;28;20188;-71
2023/01/05 01:18:35;;;;;;;21.70;19.50;;;;;;;6.57;76.81;95705.22;5101006;28;20216;-71
2023/01/05 01:21:04;;;;;;;22.50;20.40;;;;;;;6.61;76.85;95703.47;5101790;28;20207;-71
2023/01/05 01:23:32;;;;;;;20.10;18.10;;;;;;;6.65;77.25;95701.75;5101453;28;20180;-71
2023/01/05 01:25:59;;;;;;;21.30;19.20;;;;;;;6.67;77.08;95694.00;5100842;28;20197;-71
2023/01/05 01:28:26;;;;;;;21.27;19.15;;;;;;;6.63;76.77;95695.75;5101434;28;20234;-71
2023/01/05 01:30:53;;;;;;;20.90;18.88;;;;;;;6.62;77.13;95681.25;5101424;28;20204;-71
2023/01/05 01:33:19;;;;;;;19.90;17.98;;;;;;;6.67;76.96;95672.06;5101571;28;20204;-71
2023/01/05 01:35:46;;;;;;;20.98;18.88;;;;;;;6.71;77.17;95676.59;5100540;28;20188;-71
2023/01/05 01:38:14;;;;;;;21.02;18.77;;;;;;;6.73;76.67;95671.63;5100956;28;20200;-71
2023/01/05 01:40:42;;;;;;;20.80;18.67;;;;;;;6.72;77.11;95669.22;5100688;28;20664;-71
2023/01/05 01:43:13;;;;;;;21.50;19.25;;;;;;;6.68;76.98;95668.19;5101587;28;20191;-71
2023/01/05 02:00:09;;;;;;;20.98;18.95;;;;;;;6.78;77.00;95634.22;5175293;27;20523;-70
2023/01/05 02:02:36;;;;;;;21.10;19.02;;;;;;;6.78;76.76;95631.50;5175150;27;20185;-71
2023/01/05 02:05:08;;;;;;;22.48;20.17;;;;;;;6.71;76.70;95635.47;5174252;27;20198;-71
2023/01/05 02:07:40;;;;;;;21.80;19.50;;;;;;;6.64;76.90;95628.81;5175069;27;20204;-71
2023/01/05 02:10:09;;;;;;;23.13;20.70;;;;;;;6.60;77.33;95631.38;5175090;27;20193;-71
2023/01/05 02:12:48;;;;;;;23.27;20.77;;;;;;;6.63;77.68;95627.22;5174035;27;20605;-71
2023/01/05 02:15:24;;;;;;;22.63;20.23;;;;;;;6.67;77.30;95617.25;5174735;27;20210;-71
2023/01/05 02:18:03;;;;;;;22.73;19.85;;;;;;;6.68;77.57;95605.16;5173571;27;20197;-71
2023/01/05 02:20:39;;;;;;;22.55;20.15;;;;;;;6.68;77.16;95616.09;5174688;27;20189;-71
2023/01/05 02:23:32;;;;;;;22.50;20.20;;;;;;;6.65;77.19;95612.09;5174724;27;20590;-71
2023/01/05 02:26:20;;;;;;;21.52;19.42;;;;;;;6.66;76.96;95613.69;5174713;27;20182;-71
2023/01/05 02:29:03;;;;;;;21.63;19.42;;;;;;;6.67;77.29;95611.75;5174407;27;20176;-71
2023/01/05 02:31:37;;;;;;;22.13;19.92;;;;;;;6.67;77.01;95611.75;5174746;27;20182;-71
2023/01/05 02:34:13;;;;;;;22.48;19.90;;;;;;;6.65;77.00;95608.53;5174414;27;20190;-71
2023/01/05 02:36:48;;;;;;;21.73;19.42;;;;;;;6.66;77.16;95621.91;5173516;27;20205;-71
2023/01/05 02:39:22;;;;;;;21.73;19.52;;;;;;;6.66;76.95;95621.13;5174500;27;20213;-71
2023/01/05 02:41:54;;;;;;;21.90;19.60;;;;;;;6.64;77.58;95615.94;5173840;27;20202;-71
2023/01/05 02:44:22;;;;;;;21.23;19.13;;;;;;;6.65;77.66;95612.09;5174417;27;20186;-71
2023/01/05 02:47:00;;;;;;;21.60;19.40;;;;;;;6.61;77.20;95610.25;5174057;27;20198;-70
2023/01/05 02:49:29;;;;;;;21.08;18.98;;;;;;;6.58;77.44;95605.44;5173992;27;20211;-71
2023/01/05 02:51:59;;;;;;;22.23;19.92;;;;;;;6.58;77.13;95599.97;5191240;27;20205;-70
2023/01/05 02:54:31;;;;;;;21.00;18.80;;;;;;;6.56;77.08;95596.72;5173887;27;20186;-70
2023/01/05 02:57:03;;;;;;;21.67;19.40;;;;;;;6.55;77.36;95598.66;5174112;27;20186;-70
2023/01/05 02:59:33;;;;;;;21.45;19.38;;;;;;;6.58;77.53;95597.22;5173527;27;20244;-71
2023/01/05 03:02:05;;;;;;;20.60;18.60;;;;;;;6.58;77.18;95587.06;5174104;27;20190;-71
2023/01/05 03:04:38;;;;;;;21.90;19.60;;;;;;;6.56;77.13;95586.56;5173244;27;20194;-71
2023/01/05 03:07:08;;;;;;;21.85;19.65;;;;;;;6.55;77.24;95581.41;5173537;27;20200;-71
2023/01/05 03:09:38;;;;;;;21.05;18.92;;;;;;;6.61;77.72;95578.22;5170405;27;20277;-71
2023/01/05 03:15:02;;;;;;;22.15;19.85;;;;;;;6.67;77.13;95567.91;5159499;27;20171;-71
2023/01/05 03:17:40;;;;;;;22.85;20.58;;;;;;;6.66;76.99;95553.38;5159538;27;20524;-71
2023/01/05 03:20:08;;;;;;;22.42;20.25;;;;;;;6.68;77.57;95544.84;5158622;27;20214;-71
2023/01/05 03:36:47;;;;;;;23.25;20.85;;;;;;;6.41;77.34;95532.97;5158646;27;20194;-71
2023/01/05 03:39:16;;;;;;;22.40;20.20;;;;;;;6.39;77.35;95523.44;5158452;27;20213;-71
2023/01/05 03:41:46;;;;;;;57.78;40.00;;;;;;;6.29;77.38;95531.94;5158649;27;20260;-71
2023/01/05 03:44:14;;;;;;;59.58;42.75;;;;;;;6.21;77.57;95534.31;5158072;27;20201;-70
2023/01/05 03:46:43;;;;;;;56.17;40.08;;;;;;;6.16;77.61;95537.19;5159286;27;20491;-71
2023/01/05 03:49:12;;;;;;;53.70;38.90;;;;;;;6.17;77.25;95537.97;5158882;27;20197;-71
2023/01/05 03:51:40;;;;;;;33.72;29.42;;;;;;;6.14;77.64;95536.69;5159180;27;20186;-71
2023/01/05 03:54:09;;;;;;;33.88;28.55;;;;;;;6.11;77.66;95544.72;5158845;27;20566;-71
2023/01/05 03:56:37;;;;;;;35.42;28.67;;;;;;;6.13;77.66;95539.72;5159072;27;20251;-71
2023/01/05 03:59:05;;;;;;;36.85;29.08;;;;;;;6.11;77.65;95540.06;5157538;27;20328;-71
2023/01/05 04:01:31;;;;;;;36.17;29.52;;;;;;;6.13;77.37;95542.47;5159061;27;20197;-70
2023/01/05 04:03:59;;;;;;;32.78;27.25;;;;;;;6.07;77.61;95535.53;5158006;27;20198;-70
2023/01/05 04:06:29;;;;;;;32.28;27.52;;;;;;;5.95;77.25;95528.66;5158926;27;20190;-71
2023/01/05 04:08:57;;;;;;;33.60;27.05;;;;;;;5.90;77.49;95531.50;5158029;27;20198;-71
2023/01/05 04:11:25;;;;;;;32.50;27.73;;;;;;;5.88;77.69;95525.56;5158765;27;20195;-71
2023/01/05 04:13:54;;;;;;;33.00;28.15;;;;;;;5.88;77.54;95528.28;5158776;27;20182;-70
2023/01/05 04:16:22;;;;;;;31.88;27.27;;;;;;;5.84;77.69;95518.25;5157745;27;20210;-70
2023/01/05 04:18:50;;;;;;;34.17;29.75;;;;;;;5.82;77.54;95515.03;5158540;27;20222;-70
2023/01/05 04:21:17;;;;;;;31.08;27.77;;;;;;;5.76;77.37;95522.56;5157014;27;20206;-71
2023/01/05 04:23:47;;;;;;;28.17;25.17;;;;;;;5.73;77.64;95515.75;5157017;27;20186;-71
2023/01/05 04:26:14;;;;;;;26.17;23.38;;;;;;;5.68;77.77;95506.88;5157572;27;20190;-71
2023/01/05 04:28:42;;;;;;;27.05;24.35;;;;;;;5.67;77.85;95511.56;5158477;27;20186;-71
2023/01/05 04:31:11;;;;;;;27.05;24.20;;;;;;;5.63;77.43;95504.25;5157390;27;20194;-71
2023/01/05 04:33:39;;;;;;;29.30;26.25;;;;;;;5.56;77.53;95515.66;5157676;27;20190;-71
2023/01/05 04:36:08;;;;;;;28.40;25.40;;;;;;;5.50;77.20;95520.44;5158310;27;20225;-71
2023/01/05 04:38:36;;;;;;;30.02;26.92;;;;;;;5.48;77.85;95506.25;5157980;27;20213;-70
2023/01/05 04:41:05;;;;;;;26.95;24.20;;;;;;;5.44;77.86;95510.72;5157269;27;20195;-71
2023/01/05 04:43:32;;;;;;;27.77;24.10;;;;;;;5.43;77.55;95516.50;5158138;27;20198;-71
2023/01/05 04:46:02;;;;;;;27.42;24.45;;;;;;;5.41;77.55;95518.72;5157143;27;20194;-71
2023/01/05 04:48:31;;;;;;;24.95;22.45;;;;;;;5.38;77.13;95520.16;5157856;27;20231;-71
2023/01/05 04:50:59;;;;;;;24.77;21.13;;;;;;;5.32;77.04;95516.72;5157966;27;20269;-71
2023/01/05 04:53:26;;;;;;;24.52;22.02;;;;;;;5.31;77.46;95514.31;5156849;27;20211;-71
2023/01/05 04:55:54;;;;;;;22.70;20.40;;;;;;;5.32;77.49;95519.47;5157372;27;20189;-71
2023/01/05 04:58:24;;;;;;;23.45;21.10;;;;;;;5.26;77.40;95525.34;5157596;27;20691;-71
2023/01/05 05:00:52;;;;;;;22.58;20.27;;;;;;;5.22;77.48;95533.38;5157949;27;20218;-71
2023/01/05 05:03:22;;;;;;;22.75;20.35;;;;;;;5.20;77.89;95532.06;5156607;27;20190;-70
2023/01/05 05:05:50;;;;;;;23.42;20.92;;;;;;;5.23;77.91;95535.00;5157889;27;20187;-70
2023/01/05 05:08:18;;;;;;;25.90;23.38;;;;;;;5.28;78.20;95531.34;5157689;27;20191;-70
2023/01/05 05:10:46;;;;;;;24.85;22.35;;;;;;;5.35;78.11;95536.41;5157741;27;20174;-71
2023/01/05 05:13:14;;;;;;;23.92;21.52;;;;;;;5.37;77.77;95545.09;5156691;27;20190;-71
2023/01/05 05:15:46;;;;;;;25.10;22.17;;;;;;;5.40;77.87;95539.00;5157318;27;20183;-71
2023/01/05 05:18:14;;;;;;;25.88;23.38;;;;;;;5.32;77.67;95544.09;5157199;27;20179;-71
2023/01/05 05:20:44;;;;;;;30.55;26.75;;;;;;;5.20;77.24;95540.28;5157344;27;20198;-71
2023/01/05 05:23:12;;;;;;;29.30;26.23;;;;;;;5.12;76.91;95530.88;5157113;27;20182;-71
2023/01/05 05:25:41;;;;;;;28.70;25.80;;;;;;;5.10;77.18;95535.03;5157319;27;20183;-70
2023/01/05 05:28:09;;;;;;;29.58;26.42;;;;;;;5.10;76.97;95535.84;5156337;27;20201;-70
2023/01/05 05:30:38;;;;;;;30.02;26.85;;;;;;;5.01;76.90;95533.03;5156369;27;20202;-70
2023/01/05 05:33:08;;;;;;;29.58;26.42;;;;;;;5.04;77.08;95535.13;5156937;27;20185;-71
2023/01/05 05:35:36;;;;;;;29.63;26.55;;;;;;;5.03;77.23;95528.03;5157301;27;20183;-71
2023/01/05 05:38:04;;;;;;;28.23;25.23;;;;;;;5.07;76.84;95522.78;5156888;27;20599;-71
2023/01/05 05:40:32;;;;;;;27.83;25.02;;;;;;;5.02;77.29;95514.69;5156326;27;20297;-71
2023/01/05 05:43:00;;;;;;;26.70;23.98;;;;;;;5.00;77.76;95512.25;5156199;27;20624;-71
2023/01/05 05:45:28;;;;;;;26.92;24.13;;;;;;;5.02;77.26;95506.50;5139296;27;20197;-71
2023/01/05 05:47:56;;;;;;;26.80;24.00;;;;;;;5.05;77.86;95495.75;5156307;27;20187;-71
2023/01/05 05:50:26;;;;;;;24.75;22.20;;;;;;;5.16;78.87;95498.25;5156109;27;20194;-71
2023/01/05 05:52:54;;;;;;;26.17;23.65;;;;;;;5.20;78.40;95493.78;5156209;27;20194;-71
2023/01/05 05:55:22;;;;;;;26.02;23.63;;;;;;;5.17;77.90;95487.00;5156037;27;20199;-71
2023/01/05 05:57:50;;;;;;;30.17;26.55;;;;;;;5.04;77.01;95488.63;5156508;27;20178;-71
2023/01/05 06:00:17;;;;;;;27.15;24.25;;;;;;;4.96;77.01;95491.31;5156679;27;20241;-71
2023/01/05 06:02:45;;;;;;;27.10;24.23;;;;;;;4.91;77.20;95492.22;5156197;27;20209;-71
2023/01/05 06:05:14;;;;;;;27.05;24.45;;;;;;;4.89;77.47;95485.44;5155996;27;20202;-71
2023/01/05 06:07:46;;;;;;;26.20;23.63;;;;;;;4.87;77.53;95483.03;5156922;27;20183;-70
2023/01/05 06:10:14;;;;;;;26.55;23.83;;;;;;;4.89;77.66;95482.72;5156966;27;20178;-70
2023/01/05 06:12:42;;;;;;;27.00;24.10;;;;;;;4.89;78.20;95474.50;5156818;27;20259;-71
2023/01/05 06:15:11;;;;;;;26.58;23.90;;;;;;;4.89;78.17;95472.59;5155643;27;20209;-71
2023/01/05 06:17:39;;;;;;;30.50;25.52;;;;;;;4.91;78.13;95484.03;5156563;27;20187;-71
2023/01/05 06:20:08;;;;;;;27.65;24.92;;;;;;;4.91;78.29;95475.03;5156705;27;20206;-71
2023/01/05 06:22:35;;;;;;;29.38;26.52;;;;;;;4.92;78.27;95468.44;5156501;27;20194;-71
2023/01/05 06:25:05;;;;;;;29.73;26.73;;;;;;;4.90;78.12;95463.28;5156539;27;20251;-70
2023/01/05 06:27:33;;;;;;;26.58;23.65;;;;;;;4.92;78.23;95476.63;5156332;27;20247;-70
2023/01/05 06:30:02;;;;;;;26.80;24.13;;;;;;;4.98;78.78;95465.28;5155904;27;20190;-70
2023/01/05 06:32:29;;;;;;;26.85;24.10;;;;;;;5.07;78.77;95474.34;5156533;27;20213;-70
2023/01/05 06:34:57;;;;;;;29.13;25.90;;;;;;;5.05;78.26;95467.59;5155679;27;20194;-70
2023/01/05 06:37:25;;;;;;;29.85;26.67;;;;;;;5.01;77.79;95467.41;5156609;27;20194;-70
2023/01/05 06:39:55;;;;;;;30.08;26.88;;;;;;;4.99;77.58;95466.91;5155686;27;20222;-70
2023/01/05 06:42:24;;;;;;;31.42;27.85;;;;;;;4.95;77.75;95463.16;5156288;27;20591;-70
2023/01/05 06:44:52;;;;;;;36.28;32.58;;;;;;;4.89;77.74;95467.13;5157023;27;20205;-70
2023/01/05 06:47:22;;;;;;;34.88;31.30;;;;;;;4.89;77.95;95469.03;5160228;27;20602;-70
2023/01/05 06:49:50;;;;;;;32.25;28.83;;;;;;;4.87;78.28;95469.38;5159619;27;20290;-70
2023/01/05 06:52:18;;;;;;;28.95;26.15;;;;;;;4.99;78.94;95469.63;5160387;27;20198;-70
2023/01/05 06:54:46;;;;;;;28.92;25.90;;;;;;;5.11;79.24;95465.53;5160050;27;20175;-70
2023/01/05 06:57:17;;;;;;;25.00;22.30;;;;;;;5.20;79.54;95471.91;5159949;27;20179;-70
2023/01/05 06:59:47;;;;;;;23.92;21.50;;;;;;;5.34;80.32;95475.41;5158951;27;20244;-70
2023/01/05 07:02:18;;;;;;;26.30;23.70;;;;;;;5.38;79.70;95467.41;5159832;27;20193;-70
2023/01/05 07:04:46;;;;;;;27.73;24.85;;;;;;;5.44;79.26;95461.47;5159250;27;20190;-70
2023/01/05 07:07:15;;;;;;;28.55;25.45;;;;;;;5.51;79.09;95463.78;5160166;27;20197;-71
2023/01/05 07:09:48;;;;;;;32.05;28.85;;;;;;;5.56;79.14;95469.13;5159163;27;20198;-71
2023/01/05 07:12:17;;;;;;;34.20;30.60;;;;;;;5.59;78.81;95467.69;5159052;27;20202;-71
2023/01/05 07:14:46;;;;;;;31.85;28.63;;;;;;;5.59;78.66;95468.50;5159664;27;20532;-70
2023/01/05 07:17:15;;;;;;;29.98;26.90;;;;;;;5.59;78.27;95465.75;5158640;27;20533;-70
2023/01/05 07:19:43;;;;;;;26.35;23.60;;;;;;;5.64;78.77;95462.09;5159781;27;20229;-70
2023/01/05 07:22:11;;;;;;;27.23;24.42;;;;;;;5.72;78.92;95467.63;5158623;27;20198;-70
2023/01/05 07:24:39;;;;;;;25.23;22.70;;;;;;;5.81;78.93;95454.00;5158835;27;20202;-70
2023/01/05 07:27:08;;;;;;;24.23;21.92;;;;;;;5.92;78.70;95457.25;5158721;27;20202;-70
2023/01/05 07:29:36;;;;;;;25.13;22.63;;;;;;;6.02;78.71;95460.56;5159342;27;20299;-70
2023/01/05 07:32:06;;;;;;;25.88;23.23;;;;;;;6.05;78.46;95450.13;5159236;27;20537;-70
2023/01/05 07:34:34;;;;;;;25.17;22.67;;;;;;;6.13;78.32;95443.88;5159548;27;20190;-71
2023/01/05 07:37:02;;;;;;;26.50;23.80;;;;;;;6.16;78.19;95441.31;5158518;27;20248;-70
2023/01/05 07:39:29;;;;;;;25.75;23.20;;;;;;;6.25;78.50;95436.69;5159512;27;20194;-70
2023/01/05 07:41:59;;;;;;;25.83;23.10;;;;;;;6.36;77.95;95437.22;5159417;27;20183;-71
2023/01/05 07:44:27;;;;;;;27.45;24.60;;;;;;;6.48;77.71;95431.94;5158320;27;20201;-71
2023/01/05 07:46:55;;;;;;;27.58;24.67;;;;;;;6.59;77.88;95420.69;5158965;27;20562;-71
2023/01/05 07:49:25;;;;;;;25.88;23.25;;;;;;;6.66;77.38;95416.34;5159288;27;20182;-71
2023/01/05 07:51:53;;;;;;;27.15;24.38;;;;;;;6.75;77.02;95427.31;5141029;27;20199;-71
2023/01/05 07:54:21;;;;;;;27.05;24.25;;;;;;;6.89;77.38;95422.50;5158161;27;20209;-71
2023/01/05 07:56:49;;;;;;;28.52;25.10;;;;;;;7.04;76.93;95423.16;5158704;27;20220;-71
2023/01/05 07:59:17;;;;;;;27.90;25.00;;;;;;;7.14;76.65;95418.16;5157633;27;20294;-71
2023/01/05 08:01:44;;;;;;;27.08;23.73;;;;;;;7.26;76.21;95420.25;5158721;27;20217;-71
2023/01/05 08:04:12;;;;;;;27.52;24.55;;;;;;;7.36;75.79;95427.38;5158929;27;20246;-71
2023/01/05 08:06:45;;;;;;;28.98;25.95;;;;;;;7.44;75.12;95421.88;5158925;27;20186;-71
2023/01/05 08:11:58;;;;;;;29.05;25.60;;;;;;;7.54;74.78;95414.44;5158085;27;20201;-71
2023/01/05 08:14:25;;;;;;;26.63;22.77;;;;;;;7.57;74.66;95406.34;5157705;27;20530;-71
2023/01/05 08:16:52;;;;;;;24.70;22.10;;;;;;;7.66;74.37;95418.13;5158555;27;20202;-71
2023/01/05 08:19:20;;;;;;;24.98;22.05;;;;;;;7.69;73.75;95417.47;5158700;27;20197;-71
2023/01/05 08:21:49;;;;;;;26.42;23.60;;;;;;;7.77;73.56;95409.53;5157592;27;20222;-70
2023/01/05 08:24:18;;;;;;;25.42;22.33;;;;;;;7.89;73.78;95412.44;5157819;27;20198;-70
2023/01/05 08:26:46;;;;;;;25.15;22.70;;;;;;;7.97;73.45;95408.84;5158561;27;20190;-70
2023/01/05 08:29:14;;;;;;;26.55;23.85;;;;;;;8.03;73.29;95410.28;5157482;27;20186;-71
2023/01/05 08:31:42;;;;;;;25.75;23.02;;;;;;;8.12;73.29;95416.53;5158291;27;20614;-71
2023/01/05 08:34:10;;;;;;;26.40;23.63;;;;;;;8.21;73.06;95411.03;5158568;27;20605;-71
2023/01/05 08:36:39;;;;;;;23.80;21.30;;;;;;;8.23;72.50;95411.50;5158148;27;20251;-71
2023/01/05 08:39:12;;;;;;;20.42;18.42;;;;;;;8.25;71.66;95402.94;5158363;27;20194;-71
2023/01/05 08:41:40;;;;;;;19.98;17.88;;;;;;;8.32;71.71;95401.28;5158165;27;20225;-71
2023/01/05 08:44:13;;;;;;;20.10;17.85;;;;;;;8.45;71.41;95402.22;5158858;27;20182;-71
2023/01/05 08:46:41;;;;;;;19.45;17.50;;;;;;;8.46;70.33;95401.09;5157806;27;20202;-71
2023/01/05 08:49:12;;;;;;;19.88;17.75;;;;;;;8.58;70.69;95395.69;5158222;27;20275;-71
2023/01/05 08:51:39;;;;;;;22.05;19.70;;;;;;;8.73;70.15;95388.00;5157512;27;20328;-71
2023/01/05 08:54:09;;;;;;;23.58;19.38;;;;;;;8.83;69.33;95387.63;5157356;27;20194;-71
2023/01/05 08:56:38;;;;;;;21.95;19.58;;;;;;;8.95;69.68;95381.38;5157229;27;20525;-71
2023/01/05 08:59:07;;;;;;;22.33;20.02;;;;;;;9.03;68.37;95386.00;5157956;27;20286;-71
2023/01/05 09:01:35;;;;;;;21.88;19.63;;;;;;;9.17;68.72;95381.03;5157697;27;20566;-71
2023/01/05 09:04:03;;;;;;;21.45;19.45;;;;;;;9.32;68.65;95374.09;5157816;27;20289;-71
2023/01/05 09:06:33;;;;;;;21.65;19.45;;;;;;;9.48;68.09;95369.59;5157984;27;20186;-71
2023/01/05 09:09:02;;;;;;;21.50;19.27;;;;;;;9.63;67.78;95354.38;5157561;27;20186;-71
2023/01/05 09:11:33;;;;;;;20.77;18.58;;;;;;;9.78;66.93;95345.47;5157346;27;20202;-71
2023/01/05 09:14:01;;;;;;;20.98;18.88;;;;;;;9.92;66.31;95336.09;5156626;27;20255;-71
2023/01/05 09:16:32;;;;;;;22.90;20.70;;;;;;;9.99;65.34;95333.59;5157322;27;20182;-70
2023/01/05 09:19:03;;;;;;;24.58;22.15;;;;;;;10.04;64.70;95328.63;5157393;27;20239;-70
2023/01/05 09:21:30;;;;;;;22.80;20.45;;;;;;;10.12;64.69;95310.38;5157262;27;20641;-70
2023/01/05 09:23:58;;;;;;;23.02;20.65;;;;;;;10.23;64.48;95299.69;5156776;27;20656;-70
2023/01/05 09:26:26;;;;;;;23.88;21.58;;;;;;;10.29;64.34;95290.88;5157566;27;20193;-70
2023/01/05 09:28:56;;;;;;;22.42;20.13;;;;;;;10.47;63.84;95279.63;5157343;27;20216;-70
2023/01/05 09:31:23;;;;;;;22.80;20.67;;;;;;;10.60;63.33;95279.25;5156509;27;20201;-71
2023/01/05 09:33:51;;;;;;;21.08;19.00;;;;;;;10.77;62.80;95291.16;5157404;27;20186;-70
2023/01/05 09:36:20;;;;;;;21.95;19.52;;;;;;;10.83;61.81;95285.06;5157772;27;20585;-70
2023/01/05 09:38:49;;;;;;;18.92;16.92;;;;;;;10.75;61.02;95282.44;5156991;27;20189;-70
2023/01/05 09:41:21;;;;;;;23.02;20.55;;;;;;;11.00;61.96;95275.69;5156828;27;20263;-70
2023/01/05 09:43:49;;;;;;;22.25;19.95;;;;;;;11.12;61.06;95271.28;5157047;27;20206;-70
2023/01/05 09:46:22;;;;;;;21.52;19.33;;;;;;;10.96;60.49;95249.94;5155904;27;20201;-70
2023/01/05 09:48:54;;;;;;;21.30;19.13;;;;;;;10.93;60.77;95244.31;5156967;27;20213;-70
2023/01/05 09:51:23;;;;;;;21.63;19.33;;;;;;;11.19;60.81;95249.41;5156728;27;20182;-71
2023/01/05 09:53:52;;;;;;;20.98;18.88;;;;;;;11.52;59.58;95241.63;5156963;27;20193;-71
2023/01/05 09:56:27;;;;;;;21.88;19.77;;;;;;;11.67;58.93;95242.78;5156222;27;20198;-71
2023/01/05 09:59:06;;;;;;;20.35;18.30;;;;;;;11.92;57.74;95231.59;5156828;27;20233;-71
2023/01/05 10:01:40;;;;;;;22.27;19.95;;;;;;;11.96;57.28;95222.22;5156570;27;20742;-71
2023/01/05 10:04:11;;;;;;;21.20;19.00;;;;;;;12.12;57.04;95222.19;5155728;27;20190;-70
2023/01/05 10:06:42;;;;;;;21.63;19.35;;;;;;;12.33;57.13;95223.84;5155964;27;20186;-71
2023/01/05 10:09:15;;;;;;;21.92;19.73;;;;;;;12.50;56.06;95229.00;5156827;27;20214;-71
2023/01/05 10:14:38;;;;;;;21.30;19.17;;;;;;;12.44;55.07;95214.63;5156517;27;20173;-71
2023/01/05 10:17:13;;;;;;;21.70;19.50;;;;;;;12.27;55.39;95213.09;5155884;27;20206;-71
2023/01/05 10:19:44;;;;;;;21.55;18.90;;;;;;;12.42;55.49;95218.94;5156707;27;20640;-71
2023/01/05 10:22:34;;;;;;;21.70;19.40;;;;;;;12.49;54.85;95219.06;5160914;27;20210;-72
2023/01/05 10:25:05;;;;;;;21.10;18.90;;;;;;;12.43;55.25;95210.28;5159887;27;20289;-71
2023/01/05 10:27:39;;;;;;;21.27;19.08;;;;;;;12.34;55.43;95200.56;5160933;27;20187;-71
2023/01/05 10:30:15;;;;;;;20.70;18.58;;;;;;;12.25;54.76;95200.78;5160887;27;20182;-71
2023/01/05 10:32:57;;;;;;;21.10;18.88;;;;;;;12.13;55.36;95189.81;5160763;27;20182;-70
2023/01/05 10:35:44;;;;;;;21.40;19.10;;;;;;;11.95;55.62;95194.94;5160071;27;20187;-71
2023/01/05 10:38:23;;;;;;;21.60;18.77;;;;;;;11.84;55.77;95191.09;5160745;27;20185;-71
2023/01/05 10:40:57;;;;;;;22.20;19.88;;;;;;;11.71;56.14;95187.63;5160463;27;20206;-71
2023/01/05 10:43:44;;;;;;;22.25;19.30;;;;;;;11.63;56.42;95174.78;5160606;27;20196;-71
2023/01/05 10:46:13;;;;;;;20.55;18.42;;;;;;;11.45;57.05;95166.84;5160210;27;20182;-71
2023/01/05 10:48:43;;;;;;;19.70;17.77;;;;;;;11.42;57.02;95164.81;5160478;27;20305;-71
2023/01/05 10:51:11;;;;;;;20.48;18.27;;;;;;;11.37;57.27;95156.78;5159407;27;20202;-71
2023/01/05 10:53:42;;;;;;;20.55;18.55;;;;;;;11.35;57.09;95161.84;5160223;27;20198;-71
2023/01/05 10:56:14;;;;;;;20.10;18.00;;;;;;;11.30;56.84;95149.13;5160268;27;20175;-71
2023/01/05 10:58:43;;;;;;;18.35;16.50;;;;;;;11.35;57.14;95152.78;5158739;27;20230;-71
2023/01/05 11:01:23;;;;;;;19.67;17.58;;;;;;;11.40;56.39;95146.97;5160071;27;20211;-71
2023/01/05 11:03:55;;;;;;;20.23;18.20;;;;;;;11.37;56.91;95147.72;5159934;27;20198;-71
2023/01/05 11:06:25;;;;;;;19.90;17.80;;;;;;;11.33;57.57;95144.84;5160135;27;20182;-70
2023/01/05 11:08:53;;;;;;;19.83;17.83;;;;;;;11.35;57.33;95142.53;5159050;27;20591;-70
2023/01/05 11:11:23;;;;;;;18.58;16.67;;;;;;;11.32;57.28;95132.19;5160066;27;20186;-70
2023/01/05 11:13:53;;;;;;;17.73;15.95;;;;;;;11.39;57.01;95134.34;5160141;27;20189;-70
2023/01/05 11:16:22;;;;;;;18.08;16.08;;;;;;;11.55;57.01;95133.19;5159606;27;20293;-70
2023/01/05 11:18:54;;;;;;;19.50;16.83;;;;;;;11.72;56.17;95123.69;5158699;27;20225;-70
2023/01/05 11:21:23;;;;;;;18.40;16.60;;;;;;;12.10;56.24;95127.75;5159778;27;20206;-71
2023/01/05 11:23:54;;;;;;;19.23;17.10;;;;;;;12.50;53.87;95130.19;5159780;27;20190;-70
2023/01/05 11:26:33;;;;;;;19.25;17.25;;;;;;;12.67;52.67;95117.91;5159821;27;20182;-71
2023/01/05 11:29:12;;;;;;;14.32;12.82;;;;;;;12.99;53.18;95126.81;5159680;27;20190;-71
2023/01/05 11:31:44;;;;;;;15.88;13.45;;;;;;;13.56;50.96;95113.19;5159353;27;20239;-71
2023/01/05 11:34:28;;;;;;;15.90;14.38;;;;;;;13.83;50.08;95105.69;5158786;27;20192;-71
2023/01/05 11:36:58;;;;;;;13.85;12.45;;;;;;;14.17;48.76;95103.03;5159196;27;20190;-70
2023/01/05 11:39:29;;;;;;;14.25;12.60;;;;;;;14.60;47.95;95111.94;5159461;27;20198;-71
2023/01/05 11:42:14;;;;;;;10.27;9.38;;;;;;;14.82;46.07;95105.47;5159762;27;20202;-70
2023/01/05 11:44:44;;;;;;;7.63;6.82;;;;;;;15.22;44.27;95098.34;5159392;27;20239;-71
2023/01/05 11:47:25;;;;;;;7.13;6.53;;;;;;;15.95;43.80;95095.00;5158136;27;20605;-71
2023/01/05 11:50:01;;;;;;;6.72;6.13;;;;;;;17.13;41.01;95088.00;5159276;27;20182;-71
2023/01/05 11:52:38;;;;;;;6.32;5.80;;;;;;;18.28;38.35;95083.28;5159254;27;20205;-71
2023/01/05 11:55:34;;;;;;;6.40;5.80;;;;;;;18.85;36.09;95088.69;5158209;27;20201;-71
2023/01/05 11:58:27;;;;;;;6.60;6.00;;;;;;;19.93;34.12;95077.63;5111249;27;20215;-71
2023/01/05 12:01:21;;;;;;;6.70;6.10;;;;;;;19.79;34.69;95088.94;5143552;27;20214;-71
2023/01/05 12:04:00;;;;;;;6.10;5.45;;;;;;;18.99;34.41;95087.81;5158323;27;20219;-70
2023/01/05 12:06:46;;;;;;;6.07;5.53;;;;;;;17.54;36.07;95090.47;5158087;27;20194;-71
2023/01/05 12:09:17;;;;;;;6.15;5.57;;;;;;;16.77;37.59;95093.47;5157925;27;20194;-71
2023/01/05 12:11:56;;;;;;;5.93;5.43;;;;;;;16.35;38.93;95086.50;5157866;27;20617;-71
2023/01/05 12:14:42;;;;;;;6.22;5.72;;;;;;;16.35;39.46;95088.50;5157744;27;20292;-71
2023/01/05 12:17:14;;;;;;;6.47;5.88;;;;;;;16.95;38.76;95079.59;5123650;27;20202;-71
2023/01/05 12:19:55;;;;;;;6.30;5.80;;;;;;;16.48;38.99;95072.25;5158693;27;20198;-71
2023/01/05 12:22:46;;;;;;;6.22;5.68;;;;;;;15.82;40.74;95067.50;5158561;27;20504;-71
2023/01/05 12:25:23;;;;;;;6.35;5.75;;;;;;;15.15;41.50;95064.94;5158240;27;20493;-71
2023/01/05 12:28:06;;;;;;;7.05;6.45;;;;;;;14.72;42.26;95055.38;5158456;27;20198;-71
2023/01/05 12:30:39;;;;;;;7.00;6.30;;;;;;;14.47;43.02;95035.63;5157134;27;20198;-71